Time;durP1;ratioP1;P1;durP2;ratioP2;P2;SDS_P1;SDS_P2;PMS_P1;PMS_P2;Temp;Humidity;BMP_temperature;BMP_pressure;BME280_temperature;BME280_humidity;BME280_pressure;Samples;Min_cycle;Max_cycle;Signal;HPM_P1;HPM_P2
2021/04/18 00:01:45;;;;;;;5.07;3.08;;;23.30;84.00;;;;;;5081667;28;20385;-80
2021/04/18 00:04:12;;;;;;;7.95;3.10;;;22.60;87.50;;;;;;5080868;28;20398;-80
2021/04/18 00:06:42;;;;;;;7.25;3.20;;;21.70;90.20;;;;;;5082146;28;20415;-80
2021/04/18 00:09:13;;;;;;;7.77;2.90;;;21.30;90.90;;;;;;5089030;28;20756;-80
2021/04/18 00:11:43;;;;;;;7.85;2.90;;;20.70;91.30;;;;;;5086009;28;20376;-80
2021/04/18 00:14:10;;;;;;;4.38;2.40;;;20.10;91.60;;;;;;5091725;28;20380;-80
2021/04/18 00:16:38;;;;;;;5.85;2.63;;;19.40;91.90;;;;;;5090733;28;20467;-80
2021/04/18 00:19:06;;;;;;;5.80;2.53;;;18.90;92.00;;;;;;5091285;28;20408;-80
2021/04/18 00:21:33;;;;;;;10.18;2.75;;;18.60;94.10;;;;;;5091372;28;20372;-80
2021/04/18 00:24:01;;;;;;;8.07;3.28;;;18.20;94.30;;;;;;5090688;28;20479;-80
2021/04/18 00:26:28;;;;;;;7.78;3.17;;;18.00;96.20;;;;;;5090879;28;20427;-81
2021/04/18 00:28:55;;;;;;;8.93;3.08;;;17.70;97.10;;;;;;5089266;28;20384;-80
2021/04/18 00:31:22;;;;;;;8.30;3.42;;;17.80;97.60;;;;;;5089729;28;20737;-81
2021/04/18 00:33:49;;;;;;;7.70;2.75;;;17.70;97.90;;;;;;5092034;28;20377;-81
2021/04/18 00:36:16;;;;;;;7.97;3.55;;;17.50;98.70;;;;;;5110552;28;20842;-79
2021/04/18 00:38:43;;;;;;;6.18;2.92;;;17.70;99.30;;;;;;5099799;28;20427;-80
2021/04/18 00:41:10;;;;;;;6.90;3.47;;;17.70;99.00;;;;;;5089206;28;20545;-78
2021/04/18 00:43:41;;;;;;;7.68;3.10;;;17.70;98.50;;;;;;5091162;28;20368;-78
2021/04/18 00:46:10;;;;;;;6.55;3.30;;;17.80;98.80;;;;;;5090552;28;20781;-78
2021/04/18 00:48:44;;;;;;;10.50;4.00;;;18.10;98.90;;;;;;5090916;28;20399;-79
2021/04/18 00:51:12;;;;;;;7.28;2.90;;;18.50;97.90;;;;;;5088576;28;20388;-79
2021/04/18 00:53:39;;;;;;;6.45;2.47;;;18.90;98.00;;;;;;5091126;28;20444;-80
2021/04/18 00:56:07;;;;;;;6.72;2.80;;;18.70;96.10;;;;;;5091112;28;20377;-78
2021/04/18 00:58:36;;;;;;;6.10;2.63;;;18.70;96.50;;;;;;5090784;28;20403;-81
2021/04/18 01:01:04;;;;;;;6.00;2.83;;;18.60;96.10;;;;;;5090606;28;20387;-81
2021/04/18 01:03:32;;;;;;;7.50;3.08;;;18.60;96.10;;;;;;5091157;28;20456;-80
2021/04/18 01:05:59;;;;;;;8.40;2.67;;;18.30;96.90;;;;;;5090618;28;20886;-79
2021/04/18 01:08:26;;;;;;;6.10;2.72;;;18.30;96.30;;;;;;5082642;28;20490;-79
2021/04/18 01:10:53;;;;;;;8.63;2.90;;;18.40;97.30;;;;;;5102458;28;20772;-80
2021/04/18 01:13:20;;;;;;;6.43;2.92;;;18.60;97.20;;;;;;5071360;28;20400;-79
2021/04/18 01:15:47;;;;;;;7.35;2.90;;;18.50;96.90;;;;;;5070844;28;20469;-81
2021/04/18 01:18:14;;;;;;;8.20;2.65;;;18.50;97.30;;;;;;5070009;28;20401;-79
2021/04/18 01:20:41;;;;;;;5.68;3.05;;;18.30;97.20;;;;;;5068833;28;20481;-79
2021/04/18 01:23:08;;;;;;;7.85;2.97;;;18.30;97.80;;;;;;5070011;28;20694;-80
2021/04/18 01:25:43;;;;;;;5.78;2.80;;;18.40;97.50;;;;;;5070036;28;20371;-80
2021/04/18 01:28:11;;;;;;;7.70;2.60;;;18.40;97.60;;;;;;5068372;28;20690;-81
2021/04/18 01:30:38;;;;;;;7.03;2.75;;;18.30;97.80;;;;;;5070264;28;20926;-80
2021/04/18 01:33:05;;;;;;;7.38;3.17;;;18.20;98.50;;;;;;5069060;28;20734;-81
2021/04/18 01:35:32;;;;;;;8.55;2.80;;;18.00;97.60;;;;;;5069805;28;20884;-80
2021/04/18 01:37:59;;;;;;;6.97;2.77;;;18.00;97.40;;;;;;5078903;28;20411;-81
2021/04/18 01:40:27;;;;;;;5.82;2.65;;;17.90;97.90;;;;;;5077834;28;20386;-80
2021/04/18 01:42:54;;;;;;;6.13;2.50;;;17.90;98.10;;;;;;5077884;28;20425;-81
2021/04/18 01:45:23;;;;;;;6.45;2.63;;;17.90;98.30;;;;;;5086355;28;20384;-79
2021/04/18 01:47:50;;;;;;;5.65;2.47;;;18.10;97.40;;;;;;5087496;28;20391;-80
2021/04/18 01:50:18;;;;;;;6.93;2.53;;;18.20;97.00;;;;;;5074558;28;20410;-80
2021/04/18 01:52:47;;;;;;;5.20;2.47;;;18.20;96.60;;;;;;5076071;28;20437;-79
2021/04/18 01:55:15;;;;;;;9.33;2.73;;;18.20;96.80;;;;;;5081623;28;20400;-79
2021/04/18 01:57:43;;;;;;;9.07;2.70;;;18.30;96.90;;;;;;5089093;28;20368;-80
2021/04/18 02:00:11;;;;;;;7.72;2.70;;;18.40;96.30;;;;;;5082598;28;20563;-79
2021/04/18 02:02:38;;;;;;;5.30;2.50;;;18.40;96.70;;;;;;5072751;28;20749;-79
2021/04/18 02:05:06;;;;;;;4.80;2.63;;;18.40;97.20;;;;;;5089075;28;20391;-80
2021/04/18 02:07:33;;;;;;;5.93;2.60;;;18.50;97.70;;;;;;5089249;28;20376;-80
2021/04/18 02:10:00;;;;;;;5.85;2.30;;;18.60;97.10;;;;;;5089158;28;20403;-80
2021/04/18 02:12:27;;;;;;;9.15;2.45;;;18.60;96.30;;;;;;5071592;28;20386;-80
2021/04/18 02:14:55;;;;;;;3.60;1.92;;;18.70;96.00;;;;;;5087211;28;20380;-81
2021/04/18 02:17:22;;;;;;;5.77;1.87;;;18.80;95.60;;;;;;5082484;28;20422;-81
2021/04/18 02:19:49;;;;;;;6.43;2.33;;;18.80;95.60;;;;;;5081696;28;20412;-81
2021/04/18 02:22:16;;;;;;;6.95;2.45;;;18.80;94.60;;;;;;5080885;28;20388;-81
2021/04/18 02:24:43;;;;;;;5.43;2.30;;;18.90;94.00;;;;;;5079045;28;20406;-81
2021/04/18 02:27:10;;;;;;;6.43;2.83;;;18.80;94.00;;;;;;5084634;28;20397;-81
2021/04/18 02:29:37;;;;;;;5.50;2.55;;;18.80;93.90;;;;;;5068983;28;20876;-81
2021/04/18 02:32:05;;;;;;;7.03;2.33;;;18.80;94.10;;;;;;5068864;28;20844;-81
2021/04/18 02:34:32;;;;;;;4.03;2.13;;;18.80;94.40;;;;;;5074912;28;20427;-81
2021/04/18 02:36:59;;;;;;;5.18;1.90;;;18.70;94.70;;;;;;5088739;28;20384;-81
2021/04/18 02:39:26;;;;;;;4.80;2.00;;;18.70;94.70;;;;;;5087983;28;20396;-81
2021/04/18 02:41:53;;;;;;;3.47;1.80;;;18.60;94.30;;;;;;5089160;28;20404;-82
2021/04/18 02:44:20;;;;;;;5.78;2.20;;;18.60;93.60;;;;;;5088849;28;20766;-81
2021/04/18 02:46:47;;;;;;;6.15;2.42;;;18.70;93.80;;;;;;5070901;28;20373;-81
2021/04/18 02:49:14;;;;;;;4.57;2.00;;;18.70;93.30;;;;;;5069152;28;20405;-81
2021/04/18 02:51:41;;;;;;;5.75;2.33;;;18.70;94.80;;;;;;5072917;28;20424;-81
2021/04/18 02:54:08;;;;;;;6.13;2.20;;;18.90;95.20;;;;;;5086212;28;20382;-80
2021/04/18 02:56:34;;;;;;;4.75;1.63;;;18.90;95.40;;;;;;5092874;28;20410;-81
2021/04/18 02:59:01;;;;;;;4.22;1.50;;;19.00;90.60;;;;;;5091316;28;20689;-82
2021/04/18 03:01:28;;;;;;;3.88;1.63;;;19.10;91.80;;;;;;5091649;28;20467;-81
2021/04/18 03:03:55;;;;;;;4.43;1.73;;;19.20;92.60;;;;;;5074493;28;21072;-81
2021/04/18 03:06:22;;;;;;;7.72;1.90;;;19.30;91.40;;;;;;5077053;28;20404;-81
2021/04/18 03:08:49;;;;;;;3.85;1.50;;;19.30;91.10;;;;;;5084414;28;20389;-81
2021/04/18 03:11:17;;;;;;;4.47;1.60;;;19.40;90.70;;;;;;5074145;28;20429;-81
2021/04/18 03:13:45;;;;;;;5.90;1.92;;;19.50;92.50;;;;;;5072673;28;20374;-81
2021/04/18 03:16:12;;;;;;;8.40;1.90;;;19.60;91.50;;;;;;5074671;28;20377;-81
2021/04/18 03:18:39;;;;;;;4.67;1.67;;;19.70;91.30;;;;;;5089052;28;20408;-81
2021/04/18 03:21:06;;;;;;;3.70;1.80;;;19.70;91.60;;;;;;5094085;28;20414;-81
2021/04/18 03:23:34;;;;;;;4.43;1.80;;;19.70;91.50;;;;;;5093840;28;20455;-81
2021/04/18 03:26:01;;;;;;;5.15;1.92;;;19.80;92.40;;;;;;5094697;28;20383;-81
2021/04/18 03:28:28;;;;;;;6.05;1.67;;;19.80;90.90;;;;;;5092955;28;20376;-81
2021/04/18 03:30:56;;;;;;;5.70;1.87;;;19.80;91.20;;;;;;5092586;28;20408;-81
2021/04/18 03:33:24;;;;;;;2.83;1.53;;;19.80;91.00;;;;;;5090491;28;20413;-80
2021/04/18 03:35:51;;;;;;;6.95;1.70;;;19.80;91.00;;;;;;5092162;28;20384;-81
2021/04/18 03:38:18;;;;;;;4.88;1.77;;;19.70;91.40;;;;;;5087849;28;20942;-81
2021/04/18 03:40:45;;;;;;;3.25;1.60;;;19.50;92.00;;;;;;5083147;28;20842;-81
2021/04/18 03:43:12;;;;;;;8.07;1.85;;;19.50;91.30;;;;;;5084970;28;20444;-82
2021/04/18 03:45:39;;;;;;;5.45;1.80;;;19.40;90.80;;;;;;5072851;28;20382;-81
2021/04/18 03:48:07;;;;;;;6.50;1.98;;;19.30;90.80;;;;;;5073222;28;20449;-81
2021/04/18 03:50:34;;;;;;;4.00;1.70;;;19.40;90.80;;;;;;5088313;28;20401;-81
2021/04/18 03:53:01;;;;;;;4.70;1.55;;;19.50;91.40;;;;;;5081826;28;20403;-81
2021/04/18 03:55:28;;;;;;;5.55;1.80;;;19.70;90.00;;;;;;5082075;28;20378;-81
2021/04/18 03:57:55;;;;;;;4.18;1.55;;;19.80;90.40;;;;;;5088971;28;20497;-81
2021/04/18 04:00:23;;;;;;;5.70;1.70;;;19.70;90.40;;;;;;5092006;28;20463;-82
2021/04/18 04:02:50;;;;;;;3.75;1.63;;;19.60;90.30;;;;;;5089757;28;20909;-82
2021/04/18 04:05:17;;;;;;;6.75;1.85;;;19.50;90.90;;;;;;5074432;28;20472;-81
2021/04/18 04:07:44;;;;;;;4.63;1.80;;;19.50;90.60;;;;;;5078487;28;20439;-81
2021/04/18 04:10:12;;;;;;;3.10;1.60;;;19.50;90.10;;;;;;5079614;28;20788;-82
2021/04/18 04:12:39;;;;;;;4.97;1.63;;;19.50;90.30;;;;;;5078229;28;20401;-82
2021/04/18 04:15:07;;;;;;;3.97;1.63;;;19.60;90.40;;;;;;5086730;28;20411;-81
2021/04/18 04:17:34;;;;;;;5.45;1.38;;;19.60;90.00;;;;;;5091571;28;21061;-80
2021/04/18 04:20:01;;;;;;;3.92;1.80;;;19.60;88.50;;;;;;5077247;28;20402;-81
2021/04/18 04:22:28;;;;;;;5.18;1.60;;;19.50;90.50;;;;;;5091714;28;20368;-81
2021/04/18 04:24:55;;;;;;;4.22;1.85;;;19.70;90.30;;;;;;5072516;28;20398;-81
2021/04/18 04:27:22;;;;;;;3.45;1.70;;;19.70;89.30;;;;;;5082889;28;20390;-81
2021/04/18 04:29:51;;;;;;;4.47;1.80;;;19.70;89.80;;;;;;5087432;28;20723;-79
2021/04/18 04:32:18;;;;;;;4.73;1.80;;;19.70;88.10;;;;;;5083378;28;20389;-81
2021/04/18 04:34:45;;;;;;;4.20;1.50;;;19.70;89.30;;;;;;5084816;28;20380;-80
2021/04/18 04:37:12;;;;;;;4.75;1.60;;;19.70;89.00;;;;;;5074352;28;20476;-80
2021/04/18 04:39:39;;;;;;;5.60;1.73;;;19.60;89.60;;;;;;5093674;28;20391;-80
2021/04/18 04:42:07;;;;;;;5.43;1.65;;;19.50;89.70;;;;;;5100266;28;20400;-81
2021/04/18 04:44:34;;;;;;;3.50;1.80;;;19.40;89.60;;;;;;5089998;28;20386;-81
2021/04/18 04:47:01;;;;;;;4.03;1.65;;;19.30;89.50;;;;;;5090170;28;20871;-81
2021/04/18 04:49:28;;;;;;;4.88;1.73;;;19.30;91.10;;;;;;5083545;28;20913;-82
2021/04/18 04:51:55;;;;;;;6.83;1.70;;;19.30;90.40;;;;;;5077741;28;20491;-80
2021/04/18 04:54:22;;;;;;;3.77;1.77;;;19.20;89.80;;;;;;5087675;28;20468;-80
2021/04/18 04:56:49;;;;;;;5.18;1.90;;;19.40;89.20;;;;;;5090500;28;20380;-80
2021/04/18 04:59:16;;;;;;;6.50;1.65;;;19.40;90.10;;;;;;5088515;28;20420;-80
2021/04/18 05:01:43;;;;;;;5.65;2.08;;;19.40;91.00;;;;;;5075750;28;20390;-80
2021/04/18 05:04:11;;;;;;;3.15;1.58;;;19.40;90.70;;;;;;5070886;28;20413;-80
2021/04/18 05:06:37;;;;;;;4.50;1.52;;;19.40;88.80;;;;;;5070330;28;20826;-80
2021/04/18 05:09:05;;;;;;;4.30;1.58;;;19.40;90.20;;;;;;5072517;28;20400;-80
2021/04/18 05:11:32;;;;;;;6.20;1.80;;;19.40;90.60;;;;;;5089074;28;20468;-78
2021/04/18 05:13:59;;;;;;;2.73;1.60;;;19.40;90.40;;;;;;5089586;28;20393;-78
2021/04/18 05:16:26;;;;;;;6.33;1.70;;;19.50;90.30;;;;;;5089046;28;20858;-78
2021/04/18 05:18:53;;;;;;;4.63;1.80;;;19.40;87.90;;;;;;5089003;28;20426;-79
2021/04/18 05:21:20;;;;;;;3.60;1.33;;;19.40;88.90;;;;;;5076791;28;20829;-79
2021/04/18 05:23:46;;;;;;;2.53;1.30;;;19.30;89.80;;;;;;5069954;28;20382;-79
2021/04/18 05:26:13;;;;;;;2.83;1.70;;;19.40;90.00;;;;;;5069800;28;20444;-79
2021/04/18 05:28:40;;;;;;;4.10;1.47;;;19.40;90.20;;;;;;5070122;28;20394;-77
2021/04/18 05:31:07;;;;;;;4.50;1.52;;;19.30;90.50;;;;;;5072554;28;20394;-78
2021/04/18 05:33:34;;;;;;;3.42;1.40;;;19.30;90.40;;;;;;5090080;28;20392;-78
2021/04/18 05:36:01;;;;;;;4.35;1.70;;;19.20;90.90;;;;;;5088586;28;20392;-78
2021/04/18 05:38:28;;;;;;;5.53;1.90;;;19.10;90.00;;;;;;5084474;28;20392;-79
2021/04/18 05:40:56;;;;;;;2.63;1.48;;;19.00;90.60;;;;;;5089001;28;20922;-78
2021/04/18 05:43:25;;;;;;;2.72;1.60;;;18.90;90.50;;;;;;5089446;28;20449;-78
2021/04/18 05:45:53;;;;;;;3.75;1.80;;;18.90;90.70;;;;;;5083578;28;20495;-78
2021/04/18 05:48:20;;;;;;;5.63;2.08;;;19.00;91.10;;;;;;5083881;28;20388;-78
2021/04/18 05:50:48;;;;;;;4.05;1.40;;;18.90;90.30;;;;;;5079253;28;20932;-79
2021/04/18 05:53:15;;;;;;;4.25;1.42;;;18.80;90.80;;;;;;5089997;28;20419;-78
2021/04/18 05:55:43;;;;;;;4.80;1.80;;;18.80;91.30;;;;;;5086707;28;20455;-80
2021/04/18 05:58:12;;;;;;;3.10;1.60;;;18.80;91.10;;;;;;5077561;28;20759;-79
2021/04/18 06:00:40;;;;;;;4.10;1.75;;;18.70;91.30;;;;;;5089298;28;20431;-81
2021/04/18 06:03:07;;;;;;;6.03;1.80;;;18.70;91.60;;;;;;5070680;28;20402;-80
2021/04/18 06:05:34;;;;;;;5.85;1.80;;;18.70;91.20;;;;;;5081204;28;20381;-80
2021/04/18 06:08:01;;;;;;;6.17;1.90;;;18.60;91.60;;;;;;5084857;28;20389;-79
2021/04/18 06:10:29;;;;;;;4.88;1.80;;;18.60;91.50;;;;;;5088724;28;20901;-80
2021/04/18 06:12:56;;;;;;;4.85;1.73;;;18.60;92.40;;;;;;5089637;28;20411;-80
2021/04/18 06:15:23;;;;;;;8.57;2.63;;;18.50;94.50;;;;;;5089510;28;20372;-79
2021/04/18 06:17:50;;;;;;;7.63;2.75;;;18.40;95.60;;;;;;5088793;28;20380;-79
2021/04/18 06:20:18;;;;;;;5.60;2.58;;;18.20;96.50;;;;;;5089426;28;20410;-79
2021/04/18 06:22:45;;;;;;;7.10;2.88;;;18.10;97.20;;;;;;5089493;28;20368;-79
2021/04/18 06:25:15;;;;;;;7.57;3.08;;;18.10;98.10;;;;;;5088900;28;20457;-80
2021/04/18 06:27:46;;;;;;;10.38;3.17;;;18.00;98.10;;;;;;5089602;28;20381;-80
2021/04/18 06:30:14;;;;;;;8.73;2.95;;;17.90;98.60;;;;;;5084032;28;20392;-79
2021/04/18 06:32:41;;;;;;;9.10;3.30;;;17.80;99.10;;;;;;5080554;28;20450;-79
2021/04/18 06:35:09;;;;;;;11.15;3.25;;;17.80;99.70;;;;;;5070123;28;20393;-81
2021/04/18 06:37:36;;;;;;;8.70;3.00;;;17.70;99.90;;;;;;5068951;28;20366;-80
2021/04/18 06:40:07;;;;;;;8.07;3.30;;;17.60;99.90;;;;;;5070717;28;20394;-80
2021/04/18 06:42:38;;;;;;;10.43;3.15;;;17.60;99.90;;;;;;5083630;28;20384;-81
2021/04/18 06:45:08;;;;;;;10.27;3.05;;;17.60;99.90;;;;;;5079197;28;20431;-81
2021/04/18 06:47:41;;;;;;;8.73;3.30;;;17.50;99.90;;;;;;5086533;28;20796;-80
2021/04/18 06:50:10;;;;;;;7.85;3.10;;;17.40;99.90;;;;;;5086489;28;20388;-80
2021/04/18 06:52:38;;;;;;;6.93;3.30;;;17.30;99.90;;;;;;5086562;28;20969;-80
2021/04/18 06:55:07;;;;;;;8.48;3.30;;;17.30;99.90;;;;;;5087539;28;20384;-80
2021/04/18 06:57:36;;;;;;;10.60;3.17;;;17.20;99.90;;;;;;5086365;28;20918;-80
2021/04/18 07:00:06;;;;;;;9.53;3.43;;;17.10;99.90;;;;;;5088824;28;20384;-81
2021/04/18 07:02:34;;;;;;;8.90;3.30;;;17.00;99.90;;;;;;5077203;28;20481;-80
2021/04/18 07:05:07;;;;;;;7.90;3.37;;;16.90;99.90;;;;;;5069092;28;20430;-80
2021/04/18 07:07:37;;;;;;;11.95;3.58;;;16.80;99.90;;;;;;5068797;28;20741;-80
2021/04/18 07:10:13;;;;;;;11.23;3.60;;;16.70;99.90;;;;;;5068597;28;20432;-80
2021/04/18 07:12:42;;;;;;;13.82;4.18;;;16.60;99.90;;;;;;5078571;28;20380;-81
2021/04/18 07:15:10;;;;;;;9.88;3.20;;;16.60;99.90;;;;;;5088889;28;20377;-81
2021/04/18 07:17:49;;;;;;;7.38;3.10;;;16.50;99.90;;;;;;5087564;28;20379;-80
2021/04/18 07:20:17;;;;;;;7.57;3.05;;;16.50;99.90;;;;;;5087053;28;20479;-81
2021/04/18 07:22:45;;;;;;;7.85;4.03;;;16.40;99.90;;;;;;5087354;28;20424;-80
2021/04/18 07:25:12;;;;;;;8.83;3.50;;;16.30;99.90;;;;;;5072799;28;20468;-80
2021/04/18 07:27:50;;;;;;;6.88;3.22;;;16.30;99.90;;;;;;5072182;28;20382;-78
2021/04/18 07:30:24;;;;;;;8.55;3.67;;;16.20;99.90;;;;;;5085314;28;20389;-80
2021/04/18 07:33:08;;;;;;;9.13;3.72;;;16.10;99.90;;;;;;5071963;28;20461;-80
2021/04/18 07:35:44;;;;;;;7.30;3.10;;;16.10;99.90;;;;;;5085086;28;20380;-80
2021/04/18 07:38:22;;;;;;;7.13;3.37;;;16.00;99.90;;;;;;5090726;28;20445;-80
2021/04/18 07:40:54;;;;;;;7.57;3.17;;;16.00;99.90;;;;;;5090131;28;20415;-79
2021/04/18 07:43:21;;;;;;;9.38;3.30;;;15.90;99.90;;;;;;5080634;28;20528;-81
2021/04/18 07:45:49;;;;;;;8.65;3.40;;;15.90;99.90;;;;;;5084853;28;20719;-82
2021/04/18 07:48:18;;;;;;;7.38;3.30;;;15.80;99.90;;;;;;5078652;28;21037;-81
2021/04/18 07:50:48;;;;;;;10.98;3.60;;;15.70;99.90;;;;;;5071569;28;20443;-81
2021/04/18 07:53:20;;;;;;;9.33;3.67;;;15.70;99.90;;;;;;5079380;28;20490;-80
2021/04/18 07:55:48;;;;;;;9.40;3.80;;;15.60;99.90;;;;;;5071823;28;20408;-79
2021/04/18 07:58:15;;;;;;;8.35;3.75;;;15.50;99.90;;;;;;5080959;28;20411;-80
2021/04/18 08:00:42;;;;;;;9.55;3.60;;;15.40;99.90;;;;;;5091567;28;20871;-80
2021/04/18 08:03:13;;;;;;;7.45;3.78;;;15.40;99.90;;;;;;5093680;28;20851;-80
2021/04/18 08:05:40;;;;;;;9.23;3.60;;;15.30;99.90;;;;;;5086347;28;20386;-79
2021/04/18 08:08:13;;;;;;;8.77;3.90;;;15.20;99.90;;;;;;5086015;28;20389;-80
2021/04/18 08:10:42;;;;;;;10.00;4.20;;;15.20;99.90;;;;;;5088941;28;20453;-80
2021/04/18 08:13:20;;;;;;;9.23;4.05;;;15.20;99.90;;;;;;5090789;28;20388;-81
2021/04/18 08:15:56;;;;;;;9.40;4.88;;;15.20;99.90;;;;;;5088018;28;20395;-80
2021/04/18 08:18:44;;;;;;;11.75;5.97;;;15.10;99.90;;;;;;5091118;28;20438;-81
2021/04/18 08:21:37;;;;;;;14.48;7.53;;;15.10;99.90;;;;;;5080289;28;20405;-79
2021/04/18 08:24:18;;;;;;;10.30;6.70;;;15.10;99.90;;;;;;5076915;28;20841;-79
2021/04/18 08:27:06;;;;;;;13.32;6.40;;;15.00;99.90;;;;;;5071541;28;20869;-80
2021/04/18 08:29:35;;;;;;;11.18;5.72;;;15.00;99.90;;;;;;5071416;28;20382;-80
2021/04/18 08:32:06;;;;;;;9.63;5.15;;;14.90;99.90;;;;;;5071264;28;20410;-79
2021/04/18 08:34:43;;;;;;;9.30;4.03;;;14.90;99.90;;;;;;5074238;28;20477;-81
2021/04/18 08:37:16;;;;;;;10.57;3.93;;;14.90;99.90;;;;;;5091537;28;20376;-81
2021/04/18 08:39:43;;;;;;;8.07;3.63;;;14.90;99.90;;;;;;5091548;28;20415;-80
2021/04/18 08:42:28;;;;;;;9.15;3.70;;;14.90;99.90;;;;;;5089301;28;20395;-80
2021/04/18 08:44:56;;;;;;;9.30;3.90;;;14.90;99.90;;;;;;5081820;28;20394;-80
2021/04/18 08:47:27;;;;;;;9.05;3.75;;;14.90;99.90;;;;;;5089021;28;20423;-79
2021/04/18 08:50:09;;;;;;;8.87;4.00;;;14.90;99.90;;;;;;5084573;28;21005;-79
2021/04/18 08:52:38;;;;;;;8.73;4.00;;;14.80;99.90;;;;;;5090035;28;20417;-80
2021/04/18 08:55:09;;;;;;;7.78;3.60;;;14.80;99.90;;;;;;5086078;28;20874;-80
2021/04/18 08:57:37;;;;;;;6.45;3.78;;;14.70;99.90;;;;;;5090282;28;20866;-80
2021/04/18 09:00:13;;;;;;;7.85;3.60;;;14.70;99.90;;;;;;5079858;28;20460;-80
2021/04/18 09:02:41;;;;;;;9.87;3.77;;;14.70;99.90;;;;;;5085758;28;20466;-80
2021/04/18 09:05:18;;;;;;;7.43;3.27;;;14.70;99.90;;;;;;5083248;28;20895;-80
2021/04/18 09:07:45;;;;;;;11.65;3.80;;;14.60;99.90;;;;;;5080497;28;20444;-80
2021/04/18 09:10:13;;;;;;;7.80;3.75;;;14.60;99.90;;;;;;5082363;28;20417;-80
2021/04/18 09:12:40;;;;;;;10.02;3.90;;;14.60;99.90;;;;;;5077811;28;20398;-80
2021/04/18 09:15:09;;;;;;;6.50;4.03;;;14.60;99.90;;;;;;5079236;28;20409;-80
2021/04/18 09:17:41;;;;;;;9.45;3.92;;;14.50;99.90;;;;;;5088522;28;20388;-80
2021/04/18 09:20:10;;;;;;;5.38;3.50;;;14.50;99.90;;;;;;5086036;28;20408;-81
2021/04/18 09:22:39;;;;;;;9.73;4.30;;;14.50;99.90;;;;;;5089327;28;20457;-81
2021/04/18 09:25:15;;;;;;;10.25;4.60;;;14.50;99.90;;;;;;5082108;28;20483;-81
2021/04/18 09:27:45;;;;;;;8.68;4.40;;;14.40;99.90;;;;;;5074593;28;20382;-80
2021/04/18 09:30:17;;;;;;;9.00;4.50;;;14.50;99.90;;;;;;5086326;28;20401;-80
2021/04/18 09:32:47;;;;;;;9.88;4.60;;;14.50;99.90;;;;;;5086768;28;20576;-80
2021/04/18 09:35:17;;;;;;;9.32;3.83;;;14.50;99.90;;;;;;5078162;28;20389;-81
2021/04/18 09:37:55;;;;;;;9.98;4.15;;;14.40;99.90;;;;;;5071441;28;20397;-80
2021/04/18 09:40:25;;;;;;;8.35;4.50;;;14.40;99.90;;;;;;5071319;28;20950;-80
2021/04/18 09:42:54;;;;;;;7.80;3.75;;;14.40;99.90;;;;;;5085892;28;20467;-80
2021/04/18 09:45:28;;;;;;;7.18;3.75;;;14.40;99.90;;;;;;5070188;28;20917;-80
2021/04/18 09:47:58;;;;;;;10.60;3.97;;;14.40;99.90;;;;;;5075830;28;20857;-79
2021/04/18 09:50:33;;;;;;;9.18;4.13;;;14.40;99.90;;;;;;5073066;28;20409;-79
2021/04/18 09:53:24;;;;;;;8.82;3.88;;;14.40;99.90;;;;;;5066091;28;20411;-78
2021/04/18 09:56:03;;;;;;;7.23;3.60;;;14.40;99.90;;;;;;5083610;28;20976;-81
2021/04/18 09:58:38;;;;;;;6.88;3.85;;;14.40;99.90;;;;;;5084389;28;21201;-80
2021/04/18 10:01:26;;;;;;;7.88;3.40;;;14.40;99.90;;;;;;5085462;28;20400;-80
2021/04/18 10:03:53;;;;;;;12.60;4.00;;;14.40;99.90;;;;;;5072255;28;20395;-79
2021/04/18 10:06:20;;;;;;;5.60;3.57;;;14.30;99.90;;;;;;5072818;28;20718;-81
2021/04/18 10:08:54;;;;;;;8.73;3.70;;;14.40;99.90;;;;;;5082209;28;20423;-79
2021/04/18 10:11:22;;;;;;;10.07;3.55;;;14.30;99.90;;;;;;5082019;28;20380;-80
2021/04/18 10:13:56;;;;;;;9.52;4.25;;;14.30;99.90;;;;;;5076204;28;20396;-80
2021/04/18 10:16:25;;;;;;;9.20;3.90;;;14.30;99.90;;;;;;5086396;28;21031;-79
2021/04/18 10:19:10;;;;;;;10.98;4.05;;;14.30;99.90;;;;;;5086268;28;20407;-79
2021/04/18 10:21:43;;;;;;;11.55;4.60;;;14.20;99.90;;;;;;5078051;28;20414;-79
2021/04/18 10:24:38;;;;;;;10.67;4.40;;;14.20;99.90;;;;;;5071003;28;20422;-79
2021/04/18 10:27:07;;;;;;;8.27;3.90;;;14.20;99.90;;;;;;5084552;28;20571;-80
2021/04/18 10:29:35;;;;;;;10.93;4.70;;;14.10;99.90;;;;;;5078660;28;20609;-80
2021/04/18 10:32:03;;;;;;;10.65;4.40;;;14.10;99.90;;;;;;5088052;28;20434;-80
2021/04/18 10:34:30;;;;;;;8.70;4.60;;;14.10;99.90;;;;;;5082541;28;20404;-79
2021/04/18 10:37:00;;;;;;;9.35;4.32;;;14.00;99.90;;;;;;5085162;28;20446;-80
2021/04/18 10:39:27;;;;;;;8.83;4.10;;;14.00;99.90;;;;;;5078736;28;20441;-79
2021/04/18 10:41:55;;;;;;;7.60;4.32;;;13.90;99.90;;;;;;5078125;28;20403;-80
2021/04/18 10:44:22;;;;;;;9.55;4.05;;;13.80;99.90;;;;;;5074096;28;20394;-80
2021/04/18 10:47:01;;;;;;;6.25;4.07;;;13.80;99.90;;;;;;5084306;28;20429;-80
2021/04/18 10:49:28;;;;;;;10.02;3.90;;;13.70;99.90;;;;;;5072965;28;20388;-79
2021/04/18 10:51:58;;;;;;;7.97;3.63;;;13.70;99.90;;;;;;5084054;28;20585;-80
2021/04/18 10:54:26;;;;;;;6.87;4.07;;;13.60;99.90;;;;;;5083818;28;20415;-79
2021/04/18 10:56:54;;;;;;;8.95;3.90;;;13.60;99.90;;;;;;5091036;28;20399;-80
2021/04/18 10:59:22;;;;;;;11.75;5.03;;;13.60;99.90;;;;;;5081045;28;20417;-79
2021/04/18 11:01:50;;;;;;;11.55;5.38;;;13.50;99.90;;;;;;5092141;28;20398;-80
2021/04/18 11:04:18;;;;;;;8.63;4.55;;;13.50;99.90;;;;;;5091670;28;20504;-80
2021/04/18 11:06:45;;;;;;;9.48;4.80;;;13.50;99.90;;;;;;5093191;28;20408;-79
2021/04/18 11:09:13;;;;;;;10.60;4.57;;;13.50;99.90;;;;;;5077219;28;20396;-79
2021/04/18 11:11:40;;;;;;;8.45;3.90;;;13.50;99.90;;;;;;5084970;28;20380;-79
2021/04/18 11:14:08;;;;;;;7.32;4.50;;;13.50;99.90;;;;;;5070782;28;20389;-79
2021/04/18 11:16:35;;;;;;;11.57;4.22;;;13.50;99.90;;;;;;5084197;28;20372;-78
2021/04/18 11:19:03;;;;;;;7.35;4.07;;;13.50;99.90;;;;;;5093072;28;20399;-79
2021/04/18 11:21:30;;;;;;;9.93;4.50;;;13.40;99.90;;;;;;5093860;28;20380;-78
2021/04/18 11:23:57;;;;;;;11.98;4.63;;;13.40;99.90;;;;;;5084656;28;20537;-79
2021/04/18 11:26:26;;;;;;;14.38;4.75;;;13.40;99.90;;;;;;5082678;28;20435;-80
2021/04/18 11:28:56;;;;;;;10.52;4.80;;;13.40;99.90;;;;;;5093136;28;20399;-80
2021/04/18 11:31:23;;;;;;;11.77;4.50;;;13.40;99.90;;;;;;5092282;28;20404;-79
2021/04/18 11:33:50;;;;;;;7.65;4.40;;;13.40;99.90;;;;;;5092392;28;20396;-79
2021/04/18 11:36:18;;;;;;;10.43;4.55;;;13.30;99.90;;;;;;5087944;28;20793;-79
2021/04/18 11:38:46;;;;;;;9.70;4.37;;;13.30;99.90;;;;;;5080510;28;20507;-79
2021/04/18 11:41:13;;;;;;;8.73;4.68;;;13.30;99.90;;;;;;5092730;28;20731;-79
2021/04/18 11:43:40;;;;;;;10.63;5.40;;;13.30;99.90;;;;;;5085552;28;20438;-79
2021/04/18 11:46:07;;;;;;;12.07;5.38;;;13.30;99.90;;;;;;5091094;28;20388;-79
2021/04/18 11:48:35;;;;;;;9.52;5.20;;;13.30;99.90;;;;;;5092064;28;20392;-79
2021/04/18 11:51:02;;;;;;;11.27;5.50;;;13.30;99.90;;;;;;5089888;28;20426;-79
2021/04/18 11:53:29;;;;;;;10.90;5.25;;;13.30;99.90;;;;;;5092475;28;20394;-79
2021/04/18 11:55:57;;;;;;;8.57;4.78;;;13.40;99.90;;;;;;5102568;28;20396;-78
2021/04/18 11:58:24;;;;;;;10.43;4.47;;;13.50;99.90;;;;;;5090894;28;20396;-79
2021/04/18 12:00:51;;;;;;;11.70;4.88;;;13.50;99.90;;;;;;5083782;28;20400;-80
2021/04/18 12:03:18;;;;;;;6.53;4.30;;;13.40;99.90;;;;;;5090877;28;20384;-80
2021/04/18 12:05:45;;;;;;;8.48;3.70;;;13.40;99.90;;;;;;5087923;28;20395;-80
2021/04/18 12:08:15;;;;;;;7.35;3.83;;;13.50;99.90;;;;;;5080694;28;20754;-79
2021/04/18 12:10:43;;;;;;;7.40;3.72;;;13.50;99.90;;;;;;5092118;28;20436;-78
2021/04/18 12:13:10;;;;;;;8.05;3.58;;;13.60;99.90;;;;;;5089561;28;20403;-78
2021/04/18 12:15:37;;;;;;;7.60;3.15;;;13.60;99.90;;;;;;5090839;28;20380;-78
2021/04/18 12:18:05;;;;;;;7.68;4.00;;;13.60;99.90;;;;;;5082688;28;20391;-80
2021/04/18 12:20:32;;;;;;;7.07;4.22;;;13.60;99.90;;;;;;5089877;28;20388;-80
2021/04/18 12:22:59;;;;;;;9.25;4.40;;;13.50;99.90;;;;;;5087648;28;20483;-83
2021/04/18 12:25:26;;;;;;;9.93;4.63;;;13.40;99.90;;;;;;5083105;28;20390;-81
2021/04/18 12:27:52;;;;;;;8.20;4.38;;;13.30;99.90;;;;;;5075500;28;20408;-81
2021/04/18 12:30:20;;;;;;;7.78;3.90;;;13.20;99.90;;;;;;5086126;28;20400;-82
2021/04/18 12:32:47;;;;;;;9.63;3.78;;;13.20;99.90;;;;;;5077158;28;20396;-82
2021/04/18 12:35:15;;;;;;;6.25;3.80;;;13.10;99.90;;;;;;5084891;28;20377;-81
2021/04/18 12:37:43;;;;;;;8.82;3.90;;;13.10;99.90;;;;;;5092073;28;20406;-81
2021/04/18 12:40:11;;;;;;;6.32;3.63;;;13.10;99.90;;;;;;5086597;28;20763;-82
2021/04/18 12:42:38;;;;;;;8.68;4.20;;;13.10;99.90;;;;;;5081112;28;20391;-81
2021/04/18 12:45:06;;;;;;;9.57;4.20;;;13.00;99.90;;;;;;5087871;28;20458;-82
2021/04/18 12:47:33;;;;;;;7.55;4.05;;;12.90;99.90;;;;;;5089822;28;20471;-81
2021/04/18 12:50:01;;;;;;;8.05;3.75;;;12.90;99.90;;;;;;5088646;28;20403;-82
2021/04/18 12:52:28;;;;;;;9.75;4.00;;;12.90;99.90;;;;;;5079881;28;20399;-82
2021/04/18 12:54:54;;;;;;;8.57;4.20;;;12.90;99.90;;;;;;5087399;28;20392;-83